Time;durP1;ratioP1;P1;durP2;ratioP2;P2;SDS_P1;SDS_P2;PMS_P1;PMS_P2;Temp;Humidity;BMP_temperature;BMP_pressure;BME280_temperature;BME280_humidity;BME280_pressure;Samples;Min_cycle;Max_cycle;Signal;HPM_P1;HPM_P2
2022/12/09 00:00:31;;;;;;;;;;;;;;;;;;5175233;27;1676;-40
2022/12/09 00:02:58;;;;;;;;;;;;;;;;;;5174883;27;1949;-40
2022/12/09 00:05:25;;;;;;;;;;;;;;;;;;5175220;27;2045;-41
2022/12/09 00:07:53;;;;;;;;;;;;;;;;;;5175321;27;1860;-41
2022/12/09 00:10:20;;;;;;;;;;;;;;;;;;5175138;27;1828;-41
2022/12/09 00:12:47;;;;;;;;;;;;;;;;;;5175066;27;2223;-42
2022/12/09 00:15:14;;;;;;;;;;;;;;;;;;5175036;27;1768;-40
2022/12/09 00:17:42;;;;;;;;;;;;;;;;;;5174737;27;2232;-41
2022/12/09 00:20:09;;;;;;;;;;;;;;;;;;5174794;27;1920;-41
2022/12/09 00:22:37;;;;;;;;;;;;;;;;;;5155965;27;2035;-40
2022/12/09 00:25:04;;;;;;;;;;;;;;;;;;5174710;27;1953;-41
2022/12/09 00:27:31;;;;;;;;;;;;;;;;;;5174588;27;1534;-40
2022/12/09 00:29:59;;;;;;;;;;;;;;;;;;5155862;27;2129;-41
2022/12/09 00:32:27;;;;;;;;;;;;;;;;;;5174749;27;1918;-41
2022/12/09 00:34:54;;;;;;;;;;;;;;;;;;5174604;27;1372;-40
2022/12/09 00:37:21;;;;;;;;;;;;;;;;;;5174481;27;1336;-39
2022/12/09 00:39:48;;;;;;;;;;;;;;;;;;5174791;27;2051;-40
2022/12/09 00:42:15;;;;;;;;;;;;;;;;;;5155557;27;2113;-39
2022/12/09 00:44:42;;;;;;;;;;;;;;;;;;5155599;27;1746;-41
2022/12/09 00:47:10;;;;;;;;;;;;;;;;;;5174037;27;1979;-40
2022/12/09 00:49:37;;;;;;;;;;;;;;;;;;5155664;27;2118;-41
2022/12/09 00:52:04;;;;;;;;;;;;;;;;;;5174161;27;1764;-41
2022/12/09 00:54:32;;;;;;;;;;;;;;;;;;5174153;27;1701;-42
2022/12/09 00:56:59;;;;;;;;;;;;;;;;;;5155853;27;1933;-43
2022/12/09 00:59:27;;;;;;;;;;;;;;;;;;5155801;27;1705;-41
2022/12/09 01:01:55;;;;;;;;;;;;;;;;;;5172995;27;1934;-40
2022/12/09 01:04:26;;;;;;;;;;;;;;;;;;5174110;27;2101;-40
2022/12/09 01:06:53;;;;;;;;;;;;;;;;;;5173506;27;1919;-41
2022/12/09 01:09:21;;;;;;;;;;;;;;;;;;5174046;27;1723;-40
2022/12/09 01:11:49;;;;;;;;;;;;;;;;;;5155227;27;2062;-41
2022/12/09 01:14:16;;;;;;;;;;;;;;;;;;5173948;27;2123;-41
2022/12/09 01:16:43;;;;;;;;;;;;;;;;;;5174171;27;2151;-43
2022/12/09 01:19:12;;;;;;;;;;;;;;;;;;5155292;27;1673;-41
2022/12/09 01:21:39;;;;;;;;;;;;;;;;;;5154806;27;1793;-40
2022/12/09 01:24:09;;;;;;;;;;;;;;;;;;5174015;27;1798;-41
2022/12/09 01:26:37;;;;;;;;;;;;;;;;;;5173656;27;1937;-41
2022/12/09 01:29:04;;;;;;;;;;;;;;;;;;5154846;27;1820;-41
2022/12/09 01:31:32;;;;;;;;;;;;;;;;;;5173892;27;1970;-40
2022/12/09 01:34:01;;;;;;;;;;;;;;;;;;5155284;27;1802;-41
2022/12/09 01:36:29;;;;;;;;;;;;;;;;;;5173878;27;1686;-41
2022/12/09 01:38:57;;;;;;;;;;;;;;;;;;5173518;27;1834;-42
2022/12/09 01:41:26;;;;;;;;;;;;;;;;;;5154873;27;1695;-41
2022/12/09 01:44:11;;;;;;;;;;;;;;;;;;5173584;27;2019;-40
2022/12/09 01:46:38;;;;;;;;;;;;;;;;;;5173686;27;1972;-41
2022/12/09 01:49:06;;;;;;;;;;;;;;;;;;5173493;27;2021;-40
2022/12/09 01:51:34;;;;;;;;;;;;;;;;;;5155112;27;1649;-41
2022/12/09 01:54:01;;;;;;;;;;;;;;;;;;5173657;27;1900;-41
2022/12/09 01:56:31;;;;;;;;;;;;;;;;;;5154496;27;1803;-41
2022/12/09 01:59:01;;;;;;;;;;;;;;;;;;5137647;27;1453;-41
2022/12/09 02:01:28;;;;;;;;;;;;;;;;;;5154741;27;2233;-41
2022/12/09 02:03:55;;;;;;;;;;;;;;;;;;5173468;27;2121;-41
2022/12/09 02:06:24;;;;;;;;;;;;;;;;;;5172902;27;1966;-42
2022/12/09 02:08:51;;;;;;;;;;;;;;;;;;5173455;27;1960;-40
2022/12/09 02:11:47;;;;;;;;;;;;;;;;;;5154528;27;1825;-42
2022/12/09 02:14:38;;;;;;;;;;;;;;;;;;5176725;27;1316;-41
2022/12/09 02:17:08;;;;;;;;;;;;;;;;;;5158776;27;2019;-41
2022/12/09 02:19:54;;;;;;;;;;;;;;;;;;5177442;27;1531;-41
2022/12/09 02:22:24;;;;;;;;;;;;;;;;;;5158502;27;1779;-42
2022/12/09 02:25:10;;;;;;;;;;;;;;;;;;5158568;27;2174;-40
2022/12/09 02:27:59;;;;;;;;;;;;;;;;;;5158148;27;1971;-41
2022/12/09 02:30:32;;;;;;;;;;;;;;;;;;5158275;27;1937;-41
2022/12/09 02:33:05;;;;;;;;;;;;;;;;;;5177111;27;1954;-42
2022/12/09 02:35:51;;;;;;;;;;;;;;;;;;5158272;27;1811;-40
2022/12/09 02:38:25;;;;;;;;;;;;;;;;;;5158098;27;1533;-41
2022/12/09 02:40:54;;;;;;;;;;;;;;;;;;5158344;27;2287;-41
2022/12/09 02:43:24;;;;;;;;;;;;;;;;;;5177021;27;1993;-41
2022/12/09 02:45:54;;;;;;;;;;;;;;;;;;5158078;27;2550;-42
2022/12/09 02:48:23;;;;;;;;;;;;;;;;;;5176806;27;2100;-41
2022/12/09 02:50:52;;;;;;;;;;;;;;;;;;5158138;27;2142;-40
2022/12/09 02:53:20;;;;;;;;;;;;;;;;;;5158071;27;1863;-41
2022/12/09 02:55:48;;;;;;;;;;;;;;;;;;5176675;27;2103;-40
2022/12/09 02:58:16;;;;;;;;;;;;;;;;;;5157823;27;2308;-41
2022/12/09 03:00:43;;;;;;;;;;;;;;;;;;5140641;27;2010;-40
2022/12/09 03:03:12;;;;;;;;;;;;;;;;;;5176651;27;1687;-42
2022/12/09 03:05:58;;;;;;;;;;;;;;;;;;5176048;27;1982;-41
2022/12/09 03:08:30;;;;;;;;;;;;;;;;;;5176280;27;1939;-41
2022/12/09 03:11:08;;;;;;;;;;;;;;;;;;5176347;27;1823;-41
2022/12/09 03:13:58;;;;;;;;;;;;;;;;;;5176477;27;1646;-41
2022/12/09 03:16:31;;;;;;;;;;;;;;;;;;5172002;27;2121;-41
2022/12/09 03:19:02;;;;;;;;;;;;;;;;;;5155314;27;1878;-41
2022/12/09 03:21:31;;;;;;;;;;;;;;;;;;5172611;27;1893;-41
2022/12/09 03:23:59;;;;;;;;;;;;;;;;;;5175363;27;1568;-42
2022/12/09 03:26:28;;;;;;;;;;;;;;;;;;5175783;27;1905;-40
2022/12/09 03:28:57;;;;;;;;;;;;;;;;;;5175968;27;1829;-41
2022/12/09 03:31:26;;;;;;;;;;;;;;;;;;5176146;27;2048;-41
2022/12/09 03:33:57;;;;;;;;;;;;;;;;;;5175741;27;2080;-41
2022/12/09 03:36:27;;;;;;;;;;;;;;;;;;5175987;27;2082;-41
2022/12/09 03:38:55;;;;;;;;;;;;;;;;;;5175744;27;1855;-41
2022/12/09 03:41:23;;;;;;;;;;;;;;;;;;5175803;27;1873;-42
2022/12/09 03:43:52;;;;;;;;;;;;;;;;;;5175688;27;1867;-41
2022/12/09 03:46:21;;;;;;;;;;;;;;;;;;5175475;27;1977;-41
2022/12/09 03:48:48;;;;;;;;;;;;;;;;;;5175580;27;2123;-41
2022/12/09 03:51:23;;;;;;;;;;;;;;;;;;5175592;27;1965;-41
2022/12/09 03:54:07;;;;;;;;;;;;;;;;;;5175494;27;1440;-41
2022/12/09 03:56:37;;;;;;;;;;;;;;;;;;5156603;27;1571;-40
2022/12/09 03:59:08;;;;;;;;;;;;;;;;;;5175206;27;1944;-41
2022/12/09 04:01:36;;;;;;;;;;;;;;;;;;5174790;27;1511;-40
2022/12/09 04:04:03;;;;;;;;;;;;;;;;;;5175254;27;1850;-42
2022/12/09 04:06:31;;;;;;;;;;;;;;;;;;5175251;27;2249;-41
2022/12/09 04:08:58;;;;;;;;;;;;;;;;;;5175305;27;1979;-40
2022/12/09 04:11:29;;;;;;;;;;;;;;;;;;5175144;27;1673;-42
2022/12/09 04:13:56;;;;;;;;;;;;;;;;;;5174807;27;1236;-42
2022/12/09 04:16:25;;;;;;;;;;;;;;;;;;5175116;27;2077;-42
2022/12/09 04:18:53;;;;;;;;;;;;;;;;;;5174844;27;1600;-41
2022/12/09 04:21:20;;;;;;;;;;;;;;;;;;5174837;27;2194;-41
2022/12/09 04:23:47;;;;;;;;;;;;;;;;;;5174855;27;2280;-41
2022/12/09 04:26:16;;;;;;;;;;;;;;;;;;5171648;27;2056;-40
2022/12/09 04:28:43;;;;;;;;;;;;;;;;;;5174857;27;2077;-40
2022/12/09 04:31:14;;;;;;;;;;;;;;;;;;5174859;27;1804;-41
2022/12/09 04:33:41;;;;;;;;;;;;;;;;;;5174500;27;1738;-40
2022/12/09 04:36:10;;;;;;;;;;;;;;;;;;5174554;27;1888;-41
2022/12/09 04:38:38;;;;;;;;;;;;;;;;;;5174532;27;1425;-42
2022/12/09 04:41:05;;;;;;;;;;;;;;;;;;5174273;27;1933;-41
2022/12/09 04:43:32;;;;;;;;;;;;;;;;;;5174494;27;2185;-41
2022/12/09 04:46:00;;;;;;;;;;;;;;;;;;5174336;27;2034;-41
2022/12/09 04:48:28;;;;;;;;;;;;;;;;;;5174227;27;1513;-41
2022/12/09 04:50:55;;;;;;;;;;;;;;;;;;5174426;27;1871;-41
2022/12/09 04:53:22;;;;;;;;;;;;;;;;;;5173058;27;1895;-41
2022/12/09 04:55:57;;;;;;;;;;;;;;;;;;5174434;27;1813;-41
2022/12/09 04:58:24;;;;;;;;;;;;;;;;;;5174240;27;1701;-41
2022/12/09 05:00:53;;;;;;;;;;;;;;;;;;5174362;27;1884;-41
2022/12/09 05:03:20;;;;;;;;;;;;;;;;;;5174084;27;1562;-41
2022/12/09 05:05:48;;;;;;;;;;;;;;;;;;5173749;27;2006;-40
2022/12/09 05:08:15;;;;;;;;;;;;;;;;;;5174298;27;1911;-40
2022/12/09 05:10:48;;;;;;;;;;;;;;;;;;5174102;27;1518;-39
2022/12/09 05:13:16;;;;;;;;;;;;;;;;;;5174472;27;1934;-40
2022/12/09 05:15:43;;;;;;;;;;;;;;;;;;5173980;27;1485;-39
2022/12/09 05:18:11;;;;;;;;;;;;;;;;;;5173705;27;1931;-40
2022/12/09 05:20:39;;;;;;;;;;;;;;;;;;5173874;27;1983;-41
2022/12/09 05:23:07;;;;;;;;;;;;;;;;;;5173822;27;1722;-41
2022/12/09 05:25:38;;;;;;;;;;;;;;;;;;5155031;27;2200;-41
2022/12/09 05:28:05;;;;;;;;;;;;;;;;;;5173462;27;2025;-39
2022/12/09 05:30:35;;;;;;;;;;;;;;;;;;5173277;27;2110;-41
2022/12/09 05:33:03;;;;;;;;;;;;;;;;;;5138211;27;2181;-40
2022/12/09 05:35:32;;;;;;;;;;;;;;;;;;5173807;27;1971;-41
2022/12/09 05:38:06;;;;;;;;;;;;;;;;;;5155064;27;2001;-41
2022/12/09 05:40:35;;;;;;;;;;;;;;;;;;5173587;27;1556;-41
2022/12/09 05:43:03;;;;;;;;;;;;;;;;;;5173541;27;1846;-41
2022/12/09 05:45:31;;;;;;;;;;;;;;;;;;5173594;27;2160;-41
2022/12/09 05:47:59;;;;;;;;;;;;;;;;;;5174685;27;2067;-41
2022/12/09 05:50:27;;;;;;;;;;;;;;;;;;5177919;27;1769;-41
2022/12/09 05:52:54;;;;;;;;;;;;;;;;;;5178202;27;2136;-41
2022/12/09 05:55:24;;;;;;;;;;;;;;;;;;5177777;27;2124;-42
2022/12/09 05:57:51;;;;;;;;;;;;;;;;;;5177597;27;1675;-43
2022/12/09 06:00:18;;;;;;;;;;;;;;;;;;5177909;27;2053;-40
2022/12/09 06:02:46;;;;;;;;;;;;;;;;;;5178013;27;1872;-40
2022/12/09 06:05:13;;;;;;;;;;;;;;;;;;5177701;27;1932;-42
2022/12/09 06:07:41;;;;;;;;;;;;;;;;;;5177643;27;1920;-41
2022/12/09 06:10:08;;;;;;;;;;;;;;;;;;5177370;27;1520;-41
2022/12/09 06:12:36;;;;;;;;;;;;;;;;;;5177548;27;2063;-40
2022/12/09 06:15:03;;;;;;;;;;;;;;;;;;5177469;27;1298;-41
2022/12/09 06:17:34;;;;;;;;;;;;;;;;;;5177245;27;1651;-41
2022/12/09 06:20:02;;;;;;;;;;;;;;;;;;5123100;27;10247;-40
2022/12/09 06:22:29;;;;;;;;;;;;;;;;;;5094798;28;1739;-41
2022/12/09 06:24:57;;;;;;;;;;;;;;;;;;5094519;28;1797;-43
2022/12/09 06:27:24;;;;;;;;;;;;;;;;;;5094479;28;2002;-41
2022/12/09 06:29:51;;;;;;;;;;;;;;;;;;5094698;28;1588;-41
2022/12/09 06:32:18;;;;;;;;;;;;;;;;;;5093258;28;1989;-41
2022/12/09 06:34:45;;;;;;;;;;;;;;;;;;5093667;28;1242;-40
2022/12/09 06:37:16;;;;;;;;;;;;;;;;;;5094437;28;1870;-40
2022/12/09 06:39:43;;;;;;;;;;;;;;;;;;5094461;28;2001;-40
2022/12/09 06:42:11;;;;;;;;;;;;;;;;;;5094580;28;1941;-41
2022/12/09 06:44:39;;;;;;;;;;;;;;;;;;5094423;28;1843;-41
2022/12/09 06:47:08;;;;;;;;;;;;;;;;;;5076164;28;2640;-43
2022/12/09 06:49:36;;;;;;;;;;;;;;;;;;5094364;28;1865;-41
2022/12/09 06:52:03;;;;;;;;;;;;;;;;;;5094252;28;2223;-42
2022/12/09 06:54:30;;;;;;;;;;;;;;;;;;5094200;28;1663;-41
2022/12/09 06:56:57;;;;;;;;;;;;;;;;;;5093446;28;1640;-41
2022/12/09 06:59:25;;;;;;;;;;;;;;;;;;5076111;28;1860;-41
2022/12/09 07:01:53;;;;;;;;;;;;;;;;;;5094189;28;1902;-41
2022/12/09 07:04:21;;;;;;;;;;;;;;;;;;5094035;28;1851;-41
2022/12/09 07:06:50;;;;;;;;;;;;;;;;;;5093721;28;1980;-41
2022/12/09 07:09:19;;;;;;;;;;;;;;;;;;5094441;28;1717;-41
2022/12/09 07:11:47;;;;;;;;;;;;;;;;;;5093746;28;2175;-41
2022/12/09 07:14:16;;;;;;;;;;;;;;;;;;5076019;28;1450;-41
2022/12/09 07:16:43;;;;;;;;;;;;;;;;;;5093653;28;1763;-41
2022/12/09 07:19:16;;;;;;;;;;;;;;;;;;5093402;28;2145;-40
2022/12/09 07:21:44;;;;;;;;;;;;;;;;;;5092507;28;2207;-40
2022/12/09 07:24:11;;;;;;;;;;;;;;;;;;5093518;28;1967;-41
2022/12/09 07:26:39;;;;;;;;;;;;;;;;;;5093505;28;1817;-41
2022/12/09 07:29:06;;;;;;;;;;;;;;;;;;5093479;28;1971;-42
2022/12/09 07:31:34;;;;;;;;;;;;;;;;;;5093284;28;1931;-41
2022/12/09 07:34:01;;;;;;;;;;;;;;;;;;5093599;28;1606;-41
2022/12/09 07:36:30;;;;;;;;;;;;;;;;;;5093318;28;1667;-42
2022/12/09 07:38:59;;;;;;;;;;;;;;;;;;5093251;28;2122;-42
2022/12/09 07:41:26;;;;;;;;;;;;;;;;;;5093205;28;1970;-41
2022/12/09 07:43:53;;;;;;;;;;;;;;;;;;5093305;28;1944;-41
2022/12/09 07:46:22;;;;;;;;;;;;;;;;;;5093469;28;1641;-42
2022/12/09 07:48:50;;;;;;;;;;;;;;;;;;5075172;28;2073;-41
2022/12/09 07:51:17;;;;;;;;;;;;;;;;;;5075523;28;1700;-41
2022/12/09 07:53:45;;;;;;;;;;;;;;;;;;5093030;28;2114;-40
2022/12/09 07:56:13;;;;;;;;;;;;;;;;;;5093123;28;1697;-42
2022/12/09 07:58:41;;;;;;;;;;;;;;;;;;5092826;28;2261;-41
2022/12/09 08:01:12;;;;;;;;;;;;;;;;;;5092544;28;1985;-41
2022/12/09 08:03:40;;;;;;;;;;;;;;;;;;5092876;28;1821;-42
2022/12/09 08:06:13;;;;;;;;;;;;;;;;;;5092670;28;2344;-41
2022/12/09 08:08:41;;;;;;;;;;;;;;;;;;5092551;28;1917;-41
2022/12/09 08:11:12;;;;;;;;;;;;;;;;;;5091842;28;2450;-44
2022/12/09 08:13:42;;;;;;;;;;;;;;;;;;5092592;28;2206;-42
2022/12/09 08:16:11;;;;;;;;;;;;;;;;;;5092616;28;1870;-41
2022/12/09 08:18:39;;;;;;;;;;;;;;;;;;5092443;28;2093;-42
2022/12/09 08:21:09;;;;;;;;;;;;;;;;;;5106384;28;2014;-41
2022/12/09 08:23:37;;;;;;;;;;;;;;;;;;5112648;28;1787;-40
2022/12/09 08:26:04;;;;;;;;;;;;;;;;;;5112703;28;2125;-41
2022/12/09 08:28:31;;;;;;;;;;;;;;;;;;5112813;28;1974;-42
2022/12/09 08:31:04;;;;;;;;;;;;;;;;;;5112714;28;1985;-43
2022/12/09 08:33:33;;;;;;;;;;;;;;;;;;5112565;28;2077;-42
2022/12/09 08:36:00;;;;;;;;;;;;;;;;;;5112554;28;1939;-41
2022/12/09 08:38:30;;;;;;;;;;;;;;;;;;5112696;28;1804;-42
2022/12/09 08:40:57;;;;;;;;;;;;;;;;;;5112777;28;2063;-40
2022/12/09 08:43:24;;;;;;;;;;;;;;;;;;5112599;28;1905;-41
2022/12/09 08:45:52;;;;;;;;;;;;;;;;;;5112672;28;2263;-41
2022/12/09 08:48:19;;;;;;;;;;;;;;;;;;5112223;28;1981;-42
2022/12/09 08:50:47;;;;;;;;;;;;;;;;;;5112032;28;1642;-41
2022/12/09 08:53:14;;;;;;;;;;;;;;;;;;5112159;28;1971;-43
2022/12/09 08:55:41;;;;;;;;;;;;;;;;;;5112104;28;1989;-42
2022/12/09 08:58:08;;;;;;;;;;;;;;;;;;5111971;28;1290;-41
2022/12/09 09:00:36;;;;;;;;;;;;;;;;;;5111875;28;1999;-41
2022/12/09 09:03:03;;;;;;;;;;;;;;;;;;5112100;28;1503;-41
2022/12/09 09:05:30;;;;;;;;;;;;;;;;;;5112098;28;2183;-43
2022/12/09 09:07:58;;;;;;;;;;;;;;;;;;5112274;28;2095;-42
2022/12/09 09:10:26;;;;;;;;;;;;;;;;;;5112217;28;2228;-42
2022/12/09 09:12:53;;;;;;;;;;;;;;;;;;5111870;28;1903;-42
2022/12/09 09:15:20;;;;;;;;;;;;;;;;;;5111819;28;1474;-41
2022/12/09 09:17:50;;;;;;;;;;;;;;;;;;5111866;28;1936;-41
2022/12/09 09:20:18;;;;;;;;;;;;;;;;;;5104600;28;2039;-41
2022/12/09 09:22:45;;;;;;;;;;;;;;;;;;5072432;28;2659;-41
2022/12/09 09:25:12;;;;;;;;;;;;;;;;;;5091494;28;1468;-42
2022/12/09 09:27:42;;;;;;;;;;;;;;;;;;5091428;28;1986;-41
2022/12/09 09:30:10;;;;;;;;;;;;;;;;;;5091261;28;1955;-41
2022/12/09 09:32:37;;;;;;;;;;;;;;;;;;5091520;28;2001;-42
2022/12/09 09:35:05;;;;;;;;;;;;;;;;;;5091528;28;2143;-42
2022/12/09 09:37:32;;;;;;;;;;;;;;;;;;5091321;28;1638;-42
2022/12/09 09:40:00;;;;;;;;;;;;;;;;;;5091563;28;1681;-41
2022/12/09 09:42:33;;;;;;;;;;;;;;;;;;5091167;28;1555;-41
2022/12/09 09:45:02;;;;;;;;;;;;;;;;;;5091397;28;1532;-43
2022/12/09 09:47:35;;;;;;;;;;;;;;;;;;5091277;28;1967;-41
2022/12/09 09:50:23;;;;;;;;;;;;;;;;;;5091173;28;1423;-41
2022/12/09 09:52:51;;;;;;;;;;;;;;;;;;5091282;28;1835;-44
2022/12/09 09:55:24;;;;;;;;;;;;;;;;;;5091095;28;1278;-42
2022/12/09 09:58:10;;;;;;;;;;;;;;;;;;5091130;28;2398;-41
2022/12/09 10:00:42;;;;;;;;;;;;;;;;;;5090935;28;1852;-42
2022/12/09 10:03:19;;;;;;;;;;;;;;;;;;5090853;28;1762;-41
2022/12/09 10:05:54;;;;;;;;;;;;;;;;;;5090550;28;1863;-42
2022/12/09 10:08:45;;;;;;;;;;;;;;;;;;5091020;28;1964;-41
2022/12/09 10:11:30;;;;;;;;;;;;;;;;;;5091361;28;1755;-42
2022/12/09 10:14:01;;;;;;;;;;;;;;;;;;5090679;28;1639;-42
2022/12/09 10:16:34;;;;;;;;;;;;;;;;;;5091166;28;2096;-42
2022/12/09 10:19:01;;;;;;;;;;;;;;;;;;5091142;28;1675;-41
2022/12/09 10:21:36;;;;;;;;;;;;;;;;;;5091062;28;2258;-42
2022/12/09 10:24:18;;;;;;;;;;;;;;;;;;5089830;28;2146;-42
2022/12/09 10:26:52;;;;;;;;;;;;;;;;;;5072707;28;1632;-42
2022/12/09 10:29:24;;;;;;;;;;;;;;;;;;5090607;28;1946;-42
2022/12/09 10:31:52;;;;;;;;;;;;;;;;;;5090870;28;1861;-42
2022/12/09 10:34:19;;;;;;;;;;;;;;;;;;5092572;28;1758;-41
2022/12/09 10:36:47;;;;;;;;;;;;;;;;;;5094580;28;1799;-42
2022/12/09 10:39:19;;;;;;;;;;;;;;;;;;5094399;28;2007;-42
2022/12/09 10:44:37;;;;;;;;;;;;;;;;;;5094504;28;1832;-41
2022/12/09 10:47:06;;;;;;;;;;;;;;;;;;5094792;28;1657;-42
2022/12/09 10:49:36;;;;;;;;;;;;;;;;;;5094055;28;2352;-41
2022/12/09 10:52:04;;;;;;;;;;;;;;;;;;5094770;28;2036;-42
2022/12/09 10:54:36;;;;;;;;;;;;;;;;;;5094110;28;2121;-41
2022/12/09 10:57:05;;;;;;;;;;;;;;;;;;5094155;28;1958;-42
2022/12/09 10:59:34;;;;;;;;;;;;;;;;;;5094505;28;1539;-42
2022/12/09 11:02:07;;;;;;;;;;;;;;;;;;5093910;28;2161;-42
2022/12/09 11:05:19;;;;;;;;;;;;;;;;;;5093938;28;2090;-42
2022/12/09 11:07:48;;;;;;;;;;;;;;;;;;5094028;28;2051;-41
2022/12/09 11:10:18;;;;;;;;;;;;;;;;;;5093836;28;1859;-43
2022/12/09 11:12:49;;;;;;;;;;;;;;;;;;5093900;28;1299;-41
2022/12/09 11:15:26;;;;;;;;;;;;;;;;;;5094011;28;2053;-41
2022/12/09 11:18:02;;;;;;;;;;;;;;;;;;5093859;28;1975;-41
2022/12/09 11:20:31;;;;;;;;;;;;;;;;;;5102469;28;1833;-41
2022/12/09 11:23:02;;;;;;;;;;;;;;;;;;5114159;28;1833;-41
2022/12/09 11:25:31;;;;;;;;;;;;;;;;;;5114170;28;1986;-42
2022/12/09 11:28:00;;;;;;;;;;;;;;;;;;5113752;28;1909;-40
2022/12/09 11:30:33;;;;;;;;;;;;;;;;;;5114033;28;1478;-42
2022/12/09 11:33:07;;;;;;;;;;;;;;;;;;5113793;28;1773;-42
2022/12/09 11:35:43;;;;;;;;;;;;;;;;;;5113930;28;2121;-41
2022/12/09 11:38:29;;;;;;;;;;;;;;;;;;5113975;28;1871;-40
2022/12/09 11:41:00;;;;;;;;;;;;;;;;;;5113680;28;2252;-44
2022/12/09 11:43:32;;;;;;;;;;;;;;;;;;5113741;28;1910;-41
2022/12/09 11:45:59;;;;;;;;;;;;;;;;;;5112618;28;1755;-41
2022/12/09 11:48:28;;;;;;;;;;;;;;;;;;5113751;28;2030;-41
2022/12/09 11:51:01;;;;;;;;;;;;;;;;;;5113477;28;2135;-41
2022/12/09 11:53:30;;;;;;;;;;;;;;;;;;5095589;28;2058;-42
2022/12/09 11:56:06;;;;;;;;;;;;;;;;;;5113634;28;1826;-41
2022/12/09 11:58:40;;;;;;;;;;;;;;;;;;5113478;28;2007;-43
2022/12/09 12:01:18;;;;;;;;;;;;;;;;;;5095469;28;1299;-42
2022/12/09 12:03:49;;;;;;;;;;;;;;;;;;5113520;28;2105;-40
2022/12/09 12:06:24;;;;;;;;;;;;;;;;;;5111259;28;1638;-41
2022/12/09 12:08:55;;;;;;;;;;;;;;;;;;5112269;28;2129;-42
2022/12/09 12:11:26;;;;;;;;;;;;;;;;;;5113368;28;1779;-41
2022/12/09 12:14:11;;;;;;;;;;;;;;;;;;5113072;28;1804;-44
2022/12/09 12:16:44;;;;;;;;;;;;;;;;;;5113250;28;1910;-42
2022/12/09 12:19:20;;;;;;;;;;;;;;;;;;5113079;28;1947;-41
2022/12/09 12:21:56;;;;;;;;;;;;;;;;;;5093231;28;2525;-41
2022/12/09 12:24:42;;;;;;;;;;;;;;;;;;5092463;28;1878;-41
2022/12/09 12:27:19;;;;;;;;;;;;;;;;;;5092739;28;1811;-41
2022/12/09 12:29:54;;;;;;;;;;;;;;;;;;5092394;28;1922;-42
2022/12/09 12:32:40;;;;;;;;;;;;;;;;;;5092265;28;2010;-43
2022/12/09 12:35:26;;;;;;;;;;;;;;;;;;5074155;28;2277;-42
2022/12/09 12:38:29;;;;;;;;;;;;;;;;;;5092224;28;1969;-42
2022/12/09 12:40:56;;;;;;;;;;;;;;;;;;5029761;28;1874;-41
2022/12/09 12:46:33;;;;;;;;;;;;;;;;;;5073814;28;2107;-42
2022/12/09 12:49:23;;;;;;;;;;;;;;;;;;5092267;28;1912;-42
2022/12/09 12:51:50;;;;;;;;;;;;;;;;;;5092072;28;2139;-42
2022/12/09 12:54:36;;;;;;;;;;;;;;;;;;5092089;28;1985;-42
2022/12/09 12:57:28;;;;;;;;;;;;;;;;;;5091956;28;2097;-43
2022/12/09 12:59:58;;;;;;;;;;;;;;;;;;5091968;28;2162;-42
2022/12/09 13:02:42;;;;;;;;;;;;;;;;;;5091898;28;1656;-41
2022/12/09 13:05:28;;;;;;;;;;;;;;;;;;5073234;28;2072;-42
2022/12/09 13:08:03;;;;;;;;;;;;;;;;;;5091718;28;2046;-43
2022/12/09 13:10:39;;;;;;;;;;;;;;;;;;5091719;28;2155;-42
2022/12/09 13:13:17;;;;;;;;;;;;;;;;;;5090480;28;2011;-42
2022/12/09 13:15:47;;;;;;;;;;;;;;;;;;5091875;28;1890;-41
2022/12/09 13:18:25;;;;;;;;;;;;;;;;;;5091663;28;2276;-40
2022/12/09 13:21:00;;;;;;;;;;;;;;;;;;5103966;28;1933;-42
2022/12/09 13:23:46;;;;;;;;;;;;;;;;;;5111623;28;2108;-42
2022/12/09 13:26:19;;;;;;;;;;;;;;;;;;5112118;28;1923;-42
2022/12/09 13:29:03;;;;;;;;;;;;;;;;;;5111946;28;1906;-41
2022/12/09 13:31:32;;;;;;;;;;;;;;;;;;5111889;28;2107;-43
2022/12/09 13:34:02;;;;;;;;;;;;;;;;;;5111495;28;1728;-41
2022/12/09 13:36:29;;;;;;;;;;;;;;;;;;5111600;28;1939;-41
2022/12/09 13:39:02;;;;;;;;;;;;;;;;;;5111980;28;1936;-43
2022/12/09 13:42:51;;;;;;;;;;;;;;;;;;5111617;28;1934;-42
2022/12/09 13:44:18;;;;;;;;;;;;;;;;;;5111879;28;1575;-43
2022/12/09 13:46:45;;;;;;;;;;;;;;;;;;5111835;28;1661;-41
2022/12/09 13:49:18;;;;;;;;;;;;;;;;;;5111553;28;2012;-42
2022/12/09 13:51:50;;;;;;;;;;;;;;;;;;5111742;28;1884;-42
2022/12/09 13:54:19;;;;;;;;;;;;;;;;;;5111767;28;1897;-41
2022/12/09 13:57:02;;;;;;;;;;;;;;;;;;5111801;28;1858;-42
2022/12/09 13:59:49;;;;;;;;;;;;;;;;;;5111050;28;2024;-41
2022/12/09 14:02:26;;;;;;;;;;;;;;;;;;5095492;28;2214;-41
2022/12/09 14:05:13;;;;;;;;;;;;;;;;;;5072548;28;2038;-40
2022/12/09 14:08:13;;;;;;;;;;;;;;;;;;5091146;28;1354;-41
2022/12/09 14:10:45;;;;;;;;;;;;;;;;;;5050687;28;1914;-41
2022/12/09 14:13:26;;;;;;;;;;;;;;;;;;5095153;28;1709;-41
2022/12/09 14:16:14;;;;;;;;;;;;;;;;;;5094982;28;1436;-41
2022/12/09 14:18:41;;;;;;;;;;;;;;;;;;5093708;28;1952;-41
2022/12/09 14:21:17;;;;;;;;;;;;;;;;;;5109210;28;2133;-41
2022/12/09 14:24:03;;;;;;;;;;;;;;;;;;5115358;28;2061;-41
2022/12/09 14:26:37;;;;;;;;;;;;;;;;;;5115236;28;1419;-41
2022/12/09 14:29:06;;;;;;;;;;;;;;;;;;5115090;28;2011;-42
2022/12/09 14:31:55;;;;;;;;;;;;;;;;;;5114989;28;1502;-42
2022/12/09 14:34:28;;;;;;;;;;;;;;;;;;5107006;28;1472;-42
2022/12/09 14:37:01;;;;;;;;;;;;;;;;;;5100083;28;2056;-39
2022/12/09 14:39:33;;;;;;;;;;;;;;;;;;5115008;28;1684;-39
2022/12/09 14:42:05;;;;;;;;;;;;;;;;;;5114902;28;1833;-41
2022/12/09 14:44:52;;;;;;;;;;;;;;;;;;5114922;28;1980;-39
2022/12/09 14:47:28;;;;;;;;;;;;;;;;;;5096711;28;1706;-39
2022/12/09 14:50:04;;;;;;;;;;;;;;;;;;5114366;28;2180;-40
2022/12/09 14:52:32;;;;;;;;;;;;;;;;;;5114561;28;1326;-41
2022/12/09 14:55:01;;;;;;;;;;;;;;;;;;5113679;28;2011;-41
2022/12/09 14:57:37;;;;;;;;;;;;;;;;;;5114409;28;1555;-43
2022/12/09 15:00:05;;;;;;;;;;;;;;;;;;5113540;28;1957;-42
2022/12/09 15:02:32;;;;;;;;;;;;;;;;;;5096124;28;1589;-42
2022/12/09 15:05:01;;;;;;;;;;;;;;;;;;5112873;28;1860;-43
2022/12/09 15:07:28;;;;;;;;;;;;;;;;;;5114266;28;2118;-42
2022/12/09 15:09:56;;;;;;;;;;;;;;;;;;5113962;28;1969;-41
2022/12/09 15:12:31;;;;;;;;;;;;;;;;;;5114665;28;1781;-41
2022/12/09 15:15:18;;;;;;;;;;;;;;;;;;5114288;28;1964;-40
2022/12/09 15:17:56;;;;;;;;;;;;;;;;;;5113097;28;1955;-41
2022/12/09 15:20:29;;;;;;;;;;;;;;;;;;5104786;28;1923;-41
2022/12/09 15:22:59;;;;;;;;;;;;;;;;;;5093290;28;1910;-42
2022/12/09 15:25:26;;;;;;;;;;;;;;;;;;5093674;28;1629;-41
2022/12/09 15:28:02;;;;;;;;;;;;;;;;;;5093712;28;1469;-42
2022/12/09 15:30:33;;;;;;;;;;;;;;;;;;5093541;28;1977;-41
2022/12/09 15:33:01;;;;;;;;;;;;;;;;;;5093420;28;1438;-42
2022/12/09 15:35:30;;;;;;;;;;;;;;;;;;5093581;28;1836;-42
2022/12/09 15:38:00;;;;;;;;;;;;;;;;;;5093497;28;1464;-41
2022/12/09 15:40:29;;;;;;;;;;;;;;;;;;5093455;28;2163;-42
2022/12/09 15:42:59;;;;;;;;;;;;;;;;;;5093257;28;1830;-42
2022/12/09 15:45:32;;;;;;;;;;;;;;;;;;5093183;28;1481;-42
2022/12/09 15:48:17;;;;;;;;;;;;;;;;;;5092956;28;1946;-43
2022/12/09 15:50:49;;;;;;;;;;;;;;;;;;5093129;28;1917;-41
2022/12/09 15:53:21;;;;;;;;;;;;;;;;;;5092933;28;1831;-41
2022/12/09 15:55:54;;;;;;;;;;;;;;;;;;5093009;28;1758;-43
2022/12/09 15:58:24;;;;;;;;;;;;;;;;;;5093038;28;2245;-41
2022/12/09 16:00:52;;;;;;;;;;;;;;;;;;5093126;28;2177;-41
2022/12/09 16:03:27;;;;;;;;;;;;;;;;;;5092690;28;1753;-41
2022/12/09 16:05:56;;;;;;;;;;;;;;;;;;5093048;28;2123;-41
2022/12/09 16:08:30;;;;;;;;;;;;;;;;;;5092887;28;1750;-42
2022/12/09 16:10:57;;;;;;;;;;;;;;;;;;5092906;28;2123;-41
2022/12/09 16:13:25;;;;;;;;;;;;;;;;;;5092961;28;1904;-42
2022/12/09 16:15:53;;;;;;;;;;;;;;;;;;5092771;28;1954;-42
2022/12/09 16:18:40;;;;;;;;;;;;;;;;;;5092514;28;1777;-44
2022/12/09 16:21:10;;;;;;;;;;;;;;;;;;5096035;28;1685;-41
2022/12/09 16:23:38;;;;;;;;;;;;;;;;;;5112934;28;1376;-43
2022/12/09 16:26:05;;;;;;;;;;;;;;;;;;5112664;28;2199;-41
2022/12/09 16:28:33;;;;;;;;;;;;;;;;;;5112848;28;1871;-42
2022/12/09 16:31:02;;;;;;;;;;;;;;;;;;5112408;28;1914;-40
2022/12/09 16:33:33;;;;;;;;;;;;;;;;;;5110554;28;1959;-40
2022/12/09 16:36:04;;;;;;;;;;;;;;;;;;5112587;28;1919;-41
2022/12/09 16:38:33;;;;;;;;;;;;;;;;;;5111108;28;1946;-39
2022/12/09 16:41:07;;;;;;;;;;;;;;;;;;5112602;28;1918;-42
2022/12/09 16:43:40;;;;;;;;;;;;;;;;;;5112168;28;2103;-42
2022/12/09 16:46:12;;;;;;;;;;;;;;;;;;5112321;28;2013;-40
2022/12/09 16:48:41;;;;;;;;;;;;;;;;;;5112019;28;1837;-39
2022/12/09 16:51:10;;;;;;;;;;;;;;;;;;5112015;28;2172;-41
2022/12/09 16:53:43;;;;;;;;;;;;;;;;;;5111914;28;1822;-41
2022/12/09 16:56:31;;;;;;;;;;;;;;;;;;5112219;28;2201;-40
2022/12/09 16:58:58;;;;;;;;;;;;;;;;;;5111182;28;1675;-41
2022/12/09 17:01:28;;;;;;;;;;;;;;;;;;5111749;28;2055;-41
2022/12/09 17:03:58;;;;;;;;;;;;;;;;;;5112323;28;1651;-41
2022/12/09 17:06:25;;;;;;;;;;;;;;;;;;5111725;28;1854;-42
2022/12/09 17:08:52;;;;;;;;;;;;;;;;;;5111984;28;2076;-42
2022/12/09 17:11:20;;;;;;;;;;;;;;;;;;5111924;28;1912;-41
2022/12/09 17:13:48;;;;;;;;;;;;;;;;;;5112029;28;2281;-42
2022/12/09 17:16:15;;;;;;;;;;;;;;;;;;5112047;28;1463;-42
2022/12/09 17:18:42;;;;;;;;;;;;;;;;;;5111839;28;1799;-42
2022/12/09 17:21:12;;;;;;;;;;;;;;;;;;5097348;28;1825;-44
2022/12/09 17:23:39;;;;;;;;;;;;;;;;;;5091411;28;1710;-42
2022/12/09 17:26:08;;;;;;;;;;;;;;;;;;5091441;28;1804;-42
2022/12/09 17:28:35;;;;;;;;;;;;;;;;;;5091428;28;1968;-42
2022/12/09 17:31:05;;;;;;;;;;;;;;;;;;5091504;28;1994;-42
2022/12/09 17:33:32;;;;;;;;;;;;;;;;;;5091434;28;1948;-43
2022/12/09 17:35:59;;;;;;;;;;;;;;;;;;5091669;28;1724;-42